sensor_id;sensor_type;location;lat;lon;timestamp;temperature;humidity
85138;SHT31;75497;42.708;23.330;2024-03-02T00:02:13;8.25;78.39
85138;SHT31;75497;42.708;23.330;2024-03-02T00:04:39;8.28;78.46
85138;SHT31;75497;42.708;23.330;2024-03-02T00:07:06;8.26;78.48
85138;SHT31;75497;42.708;23.330;2024-03-02T00:09:32;8.32;78.30
85138;SHT31;75497;42.708;23.330;2024-03-02T00:11:59;8.25;78.32
85138;SHT31;75497;42.708;23.330;2024-03-02T00:14:25;8.21;78.49
85138;SHT31;75497;42.708;23.330;2024-03-02T00:16:51;8.22;78.54
85138;SHT31;75497;42.708;23.330;2024-03-02T00:19:17;8.18;78.28
85138;SHT31;75497;42.708;23.330;2024-03-02T00:21:43;8.17;78.44
85138;SHT31;75497;42.708;23.330;2024-03-02T00:24:32;8.15;78.16
85138;SHT31;75497;42.708;23.330;2024-03-02T00:26:59;8.17;77.98
85138;SHT31;75497;42.708;23.330;2024-03-02T00:29:25;8.20;78.25
85138;SHT31;75497;42.708;23.330;2024-03-02T00:31:51;8.22;77.81
85138;SHT31;75497;42.708;23.330;2024-03-02T00:34:17;8.20;78.15
85138;SHT31;75497;42.708;23.330;2024-03-02T00:36:43;8.17;78.25
85138;SHT31;75497;42.708;23.330;2024-03-02T00:39:08;8.12;78.12
85138;SHT31;75497;42.708;23.330;2024-03-02T00:41:41;8.14;78.13
85138;SHT31;75497;42.708;23.330;2024-03-02T00:44:12;8.12;78.12
85138;SHT31;75497;42.708;23.330;2024-03-02T00:46:42;8.18;78.01
85138;SHT31;75497;42.708;23.330;2024-03-02T00:49:18;8.15;78.11
85138;SHT31;75497;42.708;23.330;2024-03-02T00:51:47;8.22;78.08
85138;SHT31;75497;42.708;23.330;2024-03-02T00:54:19;8.29;77.82
85138;SHT31;75497;42.708;23.330;2024-03-02T00:56:47;8.29;78.03
85138;SHT31;75497;42.708;23.330;2024-03-02T00:59:12;8.39;77.79
85138;SHT31;75497;42.708;23.330;2024-03-02T01:01:38;8.35;78.18
85138;SHT31;75497;42.708;23.330;2024-03-02T01:04:04;8.39;77.91
85138;SHT31;75497;42.708;23.330;2024-03-02T01:06:30;8.35;78.04
85138;SHT31;75497;42.708;23.330;2024-03-02T01:09:06;8.39;77.78
85138;SHT31;75497;42.708;23.330;2024-03-02T01:11:32;8.53;77.33
85138;SHT31;75497;42.708;23.330;2024-03-02T01:13:58;8.53;77.47
85138;SHT31;75497;42.708;23.330;2024-03-02T01:16:23;8.48;77.47
85138;SHT31;75497;42.708;23.330;2024-03-02T01:18:49;8.52;77.71
85138;SHT31;75497;42.708;23.330;2024-03-02T01:21:15;8.66;77.31
85138;SHT31;75497;42.708;23.330;2024-03-02T01:23:40;8.60;77.57
85138;SHT31;75497;42.708;23.330;2024-03-02T01:26:06;8.69;77.43
85138;SHT31;75497;42.708;23.330;2024-03-02T01:28:32;8.75;77.93
85138;SHT31;75497;42.708;23.330;2024-03-02T01:30:58;8.72;78.41
85138;SHT31;75497;42.708;23.330;2024-03-02T01:33:24;8.66;78.80
85138;SHT31;75497;42.708;23.330;2024-03-02T01:35:49;8.60;79.22
85138;SHT31;75497;42.708;23.330;2024-03-02T01:38:15;8.49;79.27
85138;SHT31;75497;42.708;23.330;2024-03-02T01:40:41;8.48;79.31
85138;SHT31;75497;42.708;23.330;2024-03-02T01:43:07;8.48;79.51
85138;SHT31;75497;42.708;23.330;2024-03-02T01:45:34;8.39;79.69
85138;SHT31;75497;42.708;23.330;2024-03-02T01:48:00;8.29;80.08
85138;SHT31;75497;42.708;23.330;2024-03-02T01:50:32;8.35;80.03
85138;SHT31;75497;42.708;23.330;2024-03-02T01:52:58;8.31;80.09
85138;SHT31;75497;42.708;23.330;2024-03-02T01:55:24;8.20;80.53
85138;SHT31;75497;42.708;23.330;2024-03-02T01:57:51;8.15;80.88
85138;SHT31;75497;42.708;23.330;2024-03-02T02:00:18;8.11;80.98
85138;SHT31;75497;42.708;23.330;2024-03-02T02:02:44;8.20;81.15
85138;SHT31;75497;42.708;23.330;2024-03-02T02:05:10;8.24;80.84
85138;SHT31;75497;42.708;23.330;2024-03-02T02:07:36;8.24;80.73
85138;SHT31;75497;42.708;23.330;2024-03-02T02:10:01;8.18;80.95
85138;SHT31;75497;42.708;23.330;2024-03-02T02:12:27;8.20;81.00
85138;SHT31;75497;42.708;23.330;2024-03-02T02:14:53;8.26;80.90
85138;SHT31;75497;42.708;23.330;2024-03-02T02:17:19;8.22;81.01
85138;SHT31;75497;42.708;23.330;2024-03-02T02:19:44;8.18;80.96
85138;SHT31;75497;42.708;23.330;2024-03-02T02:22:10;8.21;81.02
85138;SHT31;75497;42.708;23.330;2024-03-02T02:24:40;8.20;80.88
85138;SHT31;75497;42.708;23.330;2024-03-02T02:27:07;8.20;81.31
85138;SHT31;75497;42.708;23.330;2024-03-02T02:29:32;8.25;80.94
85138;SHT31;75497;42.708;23.330;2024-03-02T02:31:58;8.08;81.51
85138;SHT31;75497;42.708;23.330;2024-03-02T02:34:23;8.02;81.59
85138;SHT31;75497;42.708;23.330;2024-03-02T02:36:49;7.87;82.18
85138;SHT31;75497;42.708;23.330;2024-03-02T02:39:16;7.90;82.16
85138;SHT31;75497;42.708;23.330;2024-03-02T02:41:42;7.81;81.94
85138;SHT31;75497;42.708;23.330;2024-03-02T02:44:08;7.81;82.38
85138;SHT31;75497;42.708;23.330;2024-03-02T02:46:33;7.77;82.43
85138;SHT31;75497;42.708;23.330;2024-03-02T02:48:59;7.74;82.30
85138;SHT31;75497;42.708;23.330;2024-03-02T02:51:25;7.87;82.18
85138;SHT31;75497;42.708;23.330;2024-03-02T02:53:54;7.85;82.33
85138;SHT31;75497;42.708;23.330;2024-03-02T02:56:20;7.83;82.13
85138;SHT31;75497;42.708;23.330;2024-03-02T02:58:45;7.84;82.23
85138;SHT31;75497;42.708;23.330;2024-03-02T03:01:11;8.01;82.08
85138;SHT31;75497;42.708;23.330;2024-03-02T03:03:37;8.12;81.27
85138;SHT31;75497;42.708;23.330;2024-03-02T03:06:02;8.09;80.71
85138;SHT31;75497;42.708;23.330;2024-03-02T03:08:28;8.18;80.33
85138;SHT31;75497;42.708;23.330;2024-03-02T03:10:54;8.18;80.51
85138;SHT31;75497;42.708;23.330;2024-03-02T03:13:21;8.25;80.56
85138;SHT31;75497;42.708;23.330;2024-03-02T03:15:47;8.32;80.47
85138;SHT31;75497;42.708;23.330;2024-03-02T03:18:15;8.35;80.35
85138;SHT31;75497;42.708;23.330;2024-03-02T03:20:40;8.31;80.18
85138;SHT31;75497;42.708;23.330;2024-03-02T03:23:06;8.36;80.41
85138;SHT31;75497;42.708;23.330;2024-03-02T03:25:33;8.42;79.93
85138;SHT31;75497;42.708;23.330;2024-03-02T03:27:59;8.50;79.91
85138;SHT31;75497;42.708;23.330;2024-03-02T03:30:24;8.41;80.64
85138;SHT31;75497;42.708;23.330;2024-03-02T03:32:51;8.34;80.72
85138;SHT31;75497;42.708;23.330;2024-03-02T03:35:17;8.25;80.69
85138;SHT31;75497;42.708;23.330;2024-03-02T03:37:43;8.25;81.04
85138;SHT31;75497;42.708;23.330;2024-03-02T03:40:10;8.24;80.84
85138;SHT31;75497;42.708;23.330;2024-03-02T03:42:38;8.15;81.01
85138;SHT31;75497;42.708;23.330;2024-03-02T03:45:05;8.12;81.11
85138;SHT31;75497;42.708;23.330;2024-03-02T03:47:31;8.14;81.24
85138;SHT31;75497;42.708;23.330;2024-03-02T03:49:57;8.18;81.40
85138;SHT31;75497;42.708;23.330;2024-03-02T03:52:23;8.12;81.44
85138;SHT31;75497;42.708;23.330;2024-03-02T03:54:49;8.05;81.28
85138;SHT31;75497;42.708;23.330;2024-03-02T03:57:14;8.11;80.99
85138;SHT31;75497;42.708;23.330;2024-03-02T03:59:40;8.07;81.12
85138;SHT31;75497;42.708;23.330;2024-03-02T04:02:06;8.18;80.69
85138;SHT31;75497;42.708;23.330;2024-03-02T04:04:33;8.20;80.79
85138;SHT31;75497;42.708;23.330;2024-03-02T04:06:59;8.20;80.84
85138;SHT31;75497;42.708;23.330;2024-03-02T04:09:24;8.09;81.04
85138;SHT31;75497;42.708;23.330;2024-03-02T04:11:51;8.18;81.11
85138;SHT31;75497;42.708;23.330;2024-03-02T04:14:17;8.24;81.28
85138;SHT31;75497;42.708;23.330;2024-03-02T04:16:42;8.20;81.05
85138;SHT31;75497;42.708;23.330;2024-03-02T04:19:08;8.25;81.05
85138;SHT31;75497;42.708;23.330;2024-03-02T04:21:33;8.22;80.80
85138;SHT31;75497;42.708;23.330;2024-03-02T04:23:59;8.21;80.84
85138;SHT31;75497;42.708;23.330;2024-03-02T04:26:25;8.28;80.79
85138;SHT31;75497;42.708;23.330;2024-03-02T04:28:52;8.38;80.80
85138;SHT31;75497;42.708;23.330;2024-03-02T04:31:17;8.28;80.54
85138;SHT31;75497;42.708;23.330;2024-03-02T04:33:43;8.28;80.74
85138;SHT31;75497;42.708;23.330;2024-03-02T04:36:08;8.09;80.68
85138;SHT31;75497;42.708;23.330;2024-03-02T04:38:38;8.07;81.27
85138;SHT31;75497;42.708;23.330;2024-03-02T04:41:07;8.24;81.44
85138;SHT31;75497;42.708;23.330;2024-03-02T04:43:33;8.25;81.60
85138;SHT31;75497;42.708;23.330;2024-03-02T04:45:59;8.25;81.52
85138;SHT31;75497;42.708;23.330;2024-03-02T04:48:25;8.35;81.18
85138;SHT31;75497;42.708;23.330;2024-03-02T04:50:51;8.35;80.67
85138;SHT31;75497;42.708;23.330;2024-03-02T04:53:16;8.26;81.49
85138;SHT31;75497;42.708;23.330;2024-03-02T04:55:42;8.26;81.61
85138;SHT31;75497;42.708;23.330;2024-03-02T04:58:08;8.28;81.79
85138;SHT31;75497;42.708;23.330;2024-03-02T05:00:34;8.29;82.19
85138;SHT31;75497;42.708;23.330;2024-03-02T05:02:59;8.25;82.09
85138;SHT31;75497;42.708;23.330;2024-03-02T05:05:25;8.31;82.35
85138;SHT31;75497;42.708;23.330;2024-03-02T05:07:52;8.39;82.56
85138;SHT31;75497;42.708;23.330;2024-03-02T05:10:17;8.45;82.64
85138;SHT31;75497;42.708;23.330;2024-03-02T05:12:43;8.34;82.74
85138;SHT31;75497;42.708;23.330;2024-03-02T05:15:17;8.31;83.21
85138;SHT31;75497;42.708;23.330;2024-03-02T05:17:43;8.31;83.11
85138;SHT31;75497;42.708;23.330;2024-03-02T05:20:09;8.31;83.29
85138;SHT31;75497;42.708;23.330;2024-03-02T05:22:35;8.36;82.76
85138;SHT31;75497;42.708;23.330;2024-03-02T05:25:01;8.44;82.70
85138;SHT31;75497;42.708;23.330;2024-03-02T05:27:27;8.34;83.53
85138;SHT31;75497;42.708;23.330;2024-03-02T05:29:53;8.41;83.80
85138;SHT31;75497;42.708;23.330;2024-03-02T05:32:19;8.48;83.60
85138;SHT31;75497;42.708;23.330;2024-03-02T05:34:44;8.45;83.74
85138;SHT31;75497;42.708;23.330;2024-03-02T05:37:10;8.41;84.00
85138;SHT31;75497;42.708;23.330;2024-03-02T05:39:36;8.41;84.13
85138;SHT31;75497;42.708;23.330;2024-03-02T05:42:02;8.39;83.84
85138;SHT31;75497;42.708;23.330;2024-03-02T05:44:28;8.39;84.12
85138;SHT31;75497;42.708;23.330;2024-03-02T05:46:54;8.38;84.18
85138;SHT31;75497;42.708;23.330;2024-03-02T05:49:20;8.48;84.08
85138;SHT31;75497;42.708;23.330;2024-03-02T05:51:46;8.45;84.10
85138;SHT31;75497;42.708;23.330;2024-03-02T05:54:11;8.28;84.76
85138;SHT31;75497;42.708;23.330;2024-03-02T05:56:37;8.32;84.64
85138;SHT31;75497;42.708;23.330;2024-03-02T05:59:03;8.36;84.70
85138;SHT31;75497;42.708;23.330;2024-03-02T06:01:47;8.31;84.70
85138;SHT31;75497;42.708;23.330;2024-03-02T06:04:15;8.26;84.87
85138;SHT31;75497;42.708;23.330;2024-03-02T06:06:41;8.22;84.99
85138;SHT31;75497;42.708;23.330;2024-03-02T06:09:08;8.15;84.57
85138;SHT31;75497;42.708;23.330;2024-03-02T06:11:37;8.20;84.61
85138;SHT31;75497;42.708;23.330;2024-03-02T06:14:07;7.99;85.48
85138;SHT31;75497;42.708;23.330;2024-03-02T06:16:33;8.12;85.21
85138;SHT31;75497;42.708;23.330;2024-03-02T06:19:00;8.07;85.60
85138;SHT31;75497;42.708;23.330;2024-03-02T06:21:26;7.93;86.08
85138;SHT31;75497;42.708;23.330;2024-03-02T06:23:51;8.04;86.03
85138;SHT31;75497;42.708;23.330;2024-03-02T06:26:17;8.08;86.09
85138;SHT31;75497;42.708;23.330;2024-03-02T06:28:43;8.09;86.02
85138;SHT31;75497;42.708;23.330;2024-03-02T06:31:09;8.09;85.70
85138;SHT31;75497;42.708;23.330;2024-03-02T06:33:35;8.20;85.59
85138;SHT31;75497;42.708;23.330;2024-03-02T06:36:00;8.18;85.25
85138;SHT31;75497;42.708;23.330;2024-03-02T06:38:26;8.17;85.29
85138;SHT31;75497;42.708;23.330;2024-03-02T06:40:52;8.22;85.09
85138;SHT31;75497;42.708;23.330;2024-03-02T06:43:17;8.24;85.02
85138;SHT31;75497;42.708;23.330;2024-03-02T06:45:43;8.15;84.80
85138;SHT31;75497;42.708;23.330;2024-03-02T06:48:09;8.24;85.07
85138;SHT31;75497;42.708;23.330;2024-03-02T06:50:34;8.22;84.89
85138;SHT31;75497;42.708;23.330;2024-03-02T06:53:00;8.32;84.61
85138;SHT31;75497;42.708;23.330;2024-03-02T06:55:25;8.36;84.43
85138;SHT31;75497;42.708;23.330;2024-03-02T06:57:51;8.32;84.45
85138;SHT31;75497;42.708;23.330;2024-03-02T07:00:19;8.38;84.42
85138;SHT31;75497;42.708;23.330;2024-03-02T07:02:48;8.38;84.08
85138;SHT31;75497;42.708;23.330;2024-03-02T07:05:14;8.42;84.13
85138;SHT31;75497;42.708;23.330;2024-03-02T07:07:39;8.26;84.09
85138;SHT31;75497;42.708;23.330;2024-03-02T07:10:05;8.25;84.57
85138;SHT31;75497;42.708;23.330;2024-03-02T07:12:33;8.32;84.46
85138;SHT31;75497;42.708;23.330;2024-03-02T07:14:58;8.34;84.44
85138;SHT31;75497;42.708;23.330;2024-03-02T07:17:30;8.36;84.47
85138;SHT31;75497;42.708;23.330;2024-03-02T07:19:56;8.34;84.23
85138;SHT31;75497;42.708;23.330;2024-03-02T07:22:22;8.28;84.57
85138;SHT31;75497;42.708;23.330;2024-03-02T07:24:48;8.26;84.70
85138;SHT31;75497;42.708;23.330;2024-03-02T07:27:15;8.34;84.81
85138;SHT31;75497;42.708;23.330;2024-03-02T07:29:41;8.36;84.79
85138;SHT31;75497;42.708;23.330;2024-03-02T07:32:07;8.38;84.68
85138;SHT31;75497;42.708;23.330;2024-03-02T07:34:33;8.48;84.53
85138;SHT31;75497;42.708;23.330;2024-03-02T07:36:59;8.57;84.14
85138;SHT31;75497;42.708;23.330;2024-03-02T07:39:24;8.41;84.17
85138;SHT31;75497;42.708;23.330;2024-03-02T07:41:50;8.45;84.00
85138;SHT31;75497;42.708;23.330;2024-03-02T07:44:16;8.48;84.33
85138;SHT31;75497;42.708;23.330;2024-03-02T07:46:45;8.48;84.80
85138;SHT31;75497;42.708;23.330;2024-03-02T07:49:16;8.49;84.22
85138;SHT31;75497;42.708;23.330;2024-03-02T07:51:42;8.48;84.21
85138;SHT31;75497;42.708;23.330;2024-03-02T07:54:08;8.46;83.91
85138;SHT31;75497;42.708;23.330;2024-03-02T07:56:34;8.45;84.23
85138;SHT31;75497;42.708;23.330;2024-03-02T07:59:00;8.45;84.35
85138;SHT31;75497;42.708;23.330;2024-03-02T08:01:30;8.44;84.65
85138;SHT31;75497;42.708;23.330;2024-03-02T08:03:57;8.34;84.85
85138;SHT31;75497;42.708;23.330;2024-03-02T08:06:27;8.29;84.92
85138;SHT31;75497;42.708;23.330;2024-03-02T08:08:57;8.34;84.72
85138;SHT31;75497;42.708;23.330;2024-03-02T08:11:23;8.38;85.24
85138;SHT31;75497;42.708;23.330;2024-03-02T08:13:49;8.28;85.24
85138;SHT31;75497;42.708;23.330;2024-03-02T08:16:18;8.36;85.13
85138;SHT31;75497;42.708;23.330;2024-03-02T08:18:48;8.28;85.04
85138;SHT31;75497;42.708;23.330;2024-03-02T08:21:14;8.35;85.06
85138;SHT31;75497;42.708;23.330;2024-03-02T08:23:40;8.55;84.94
85138;SHT31;75497;42.708;23.330;2024-03-02T08:26:07;8.45;84.49
85138;SHT31;75497;42.708;23.330;2024-03-02T08:28:33;8.53;84.93
85138;SHT31;75497;42.708;23.330;2024-03-02T08:30:59;8.55;84.31
85138;SHT31;75497;42.708;23.330;2024-03-02T08:33:24;8.69;84.61
85138;SHT31;75497;42.708;23.330;2024-03-02T08:35:50;8.66;84.11
85138;SHT31;75497;42.708;23.330;2024-03-02T08:38:16;8.70;84.02
85138;SHT31;75497;42.708;23.330;2024-03-02T08:40:42;8.76;83.72
85138;SHT31;75497;42.708;23.330;2024-03-02T08:43:07;8.91;83.42
85138;SHT31;75497;42.708;23.330;2024-03-02T08:45:33;8.90;83.16
85138;SHT31;75497;42.708;23.330;2024-03-02T08:48:00;8.93;83.47
85138;SHT31;75497;42.708;23.330;2024-03-02T08:50:25;8.90;83.64
85138;SHT31;75497;42.708;23.330;2024-03-02T08:52:51;8.97;83.53
85138;SHT31;75497;42.708;23.330;2024-03-02T08:55:17;9.23;82.80
85138;SHT31;75497;42.708;23.330;2024-03-02T08:57:42;9.38;82.82
85138;SHT31;75497;42.708;23.330;2024-03-02T09:00:08;9.35;81.90
85138;SHT31;75497;42.708;23.330;2024-03-02T09:02:34;9.37;81.78
85138;SHT31;75497;42.708;23.330;2024-03-02T09:05:01;9.49;81.62
85138;SHT31;75497;42.708;23.330;2024-03-02T09:07:27;9.67;81.35
85138;SHT31;75497;42.708;23.330;2024-03-02T09:09:52;9.75;79.82
85138;SHT31;75497;42.708;23.330;2024-03-02T09:12:18;9.75;79.63
85138;SHT31;75497;42.708;23.330;2024-03-02T09:14:44;9.79;79.15
85138;SHT31;75497;42.708;23.330;2024-03-02T09:17:10;9.75;79.60
85138;SHT31;75497;42.708;23.330;2024-03-02T09:19:37;9.74;79.74
85138;SHT31;75497;42.708;23.330;2024-03-02T09:22:03;9.82;79.94
85138;SHT31;75497;42.708;23.330;2024-03-02T09:24:31;9.98;79.93
85138;SHT31;75497;42.708;23.330;2024-03-02T09:26:56;10.00;80.03
85138;SHT31;75497;42.708;23.330;2024-03-02T09:29:22;10.06;79.74
85138;SHT31;75497;42.708;23.330;2024-03-02T09:31:48;9.96;78.30
85138;SHT31;75497;42.708;23.330;2024-03-02T09:34:15;10.05;79.06
85138;SHT31;75497;42.708;23.330;2024-03-02T09:36:41;10.09;78.83
85138;SHT31;75497;42.708;23.330;2024-03-02T09:39:09;10.17;78.57
85138;SHT31;75497;42.708;23.330;2024-03-02T09:41:38;10.20;78.27
85138;SHT31;75497;42.708;23.330;2024-03-02T09:44:04;10.24;78.63
85138;SHT31;75497;42.708;23.330;2024-03-02T09:46:31;10.08;79.42
85138;SHT31;75497;42.708;23.330;2024-03-02T09:48:56;10.17;79.06
85138;SHT31;75497;42.708;23.330;2024-03-02T09:51:23;10.30;78.63
85138;SHT31;75497;42.708;23.330;2024-03-02T09:53:49;10.19;79.14
85138;SHT31;75497;42.708;23.330;2024-03-02T09:56:15;10.24;78.30
85138;SHT31;75497;42.708;23.330;2024-03-02T09:58:41;10.34;78.39
85138;SHT31;75497;42.708;23.330;2024-03-02T10:01:08;10.39;77.82
85138;SHT31;75497;42.708;23.330;2024-03-02T10:03:36;10.39;76.66
85138;SHT31;75497;42.708;23.330;2024-03-02T10:06:24;10.41;76.95
85138;SHT31;75497;42.708;23.330;2024-03-02T10:08:50;10.46;76.89
85138;SHT31;75497;42.708;23.330;2024-03-02T10:11:45;10.37;77.29
85138;SHT31;75497;42.708;23.330;2024-03-02T10:14:12;10.37;78.87
85138;SHT31;75497;42.708;23.330;2024-03-02T10:16:40;10.36;79.35
85138;SHT31;75497;42.708;23.330;2024-03-02T10:21:40;10.47;79.58
85138;SHT31;75497;42.708;23.330;2024-03-02T10:24:09;10.46;79.45
85138;SHT31;75497;42.708;23.330;2024-03-02T10:26:35;10.54;79.23
85138;SHT31;75497;42.708;23.330;2024-03-02T10:29:00;10.49;78.83
85138;SHT31;75497;42.708;23.330;2024-03-02T10:31:27;10.50;78.65
85138;SHT31;75497;42.708;23.330;2024-03-02T10:33:57;10.59;78.45
85138;SHT31;75497;42.708;23.330;2024-03-02T10:36:23;10.49;78.63
85138;SHT31;75497;42.708;23.330;2024-03-02T10:38:52;10.64;78.63
85138;SHT31;75497;42.708;23.330;2024-03-02T10:41:23;10.37;78.53
85138;SHT31;75497;42.708;23.330;2024-03-02T10:43:53;10.43;78.28
85138;SHT31;75497;42.708;23.330;2024-03-02T10:46:28;10.41;78.15
85138;SHT31;75497;42.708;23.330;2024-03-02T10:48:57;10.46;78.52
85138;SHT31;75497;42.708;23.330;2024-03-02T10:51:27;10.47;77.80
85138;SHT31;75497;42.708;23.330;2024-03-02T10:53:54;10.39;77.84
85138;SHT31;75497;42.708;23.330;2024-03-02T10:56:31;10.33;78.90
85138;SHT31;75497;42.708;23.330;2024-03-02T10:59:28;10.19;78.33
85138;SHT31;75497;42.708;23.330;2024-03-02T11:01:59;10.16;78.75
85138;SHT31;75497;42.708;23.330;2024-03-02T11:04:26;10.28;78.96
85138;SHT31;75497;42.708;23.330;2024-03-02T11:06:56;10.36;78.76
85138;SHT31;75497;42.708;23.330;2024-03-02T11:09:26;10.40;79.12
85138;SHT31;75497;42.708;23.330;2024-03-02T11:12:13;10.49;78.89
85138;SHT31;75497;42.708;23.330;2024-03-02T11:14:41;10.53;78.71
85138;SHT31;75497;42.708;23.330;2024-03-02T11:17:14;10.53;78.60
85138;SHT31;75497;42.708;23.330;2024-03-02T11:19:41;10.56;78.40
85138;SHT31;75497;42.708;23.330;2024-03-02T11:22:08;10.53;78.87
85138;SHT31;75497;42.708;23.330;2024-03-02T11:24:34;10.53;78.69
85138;SHT31;75497;42.708;23.330;2024-03-02T11:27:02;10.46;78.21
85138;SHT31;75497;42.708;23.330;2024-03-02T11:32:12;10.34;78.68
85138;SHT31;75497;42.708;23.330;2024-03-02T11:34:41;10.37;79.01
85138;SHT31;75497;42.708;23.330;2024-03-02T11:37:11;10.46;78.10
85138;SHT31;75497;42.708;23.330;2024-03-02T11:39:38;10.32;79.10
85138;SHT31;75497;42.708;23.330;2024-03-02T11:42:07;10.44;78.12
85138;SHT31;75497;42.708;23.330;2024-03-02T11:44:35;10.43;78.14
85138;SHT31;75497;42.708;23.330;2024-03-02T11:47:02;10.49;78.36
85138;SHT31;75497;42.708;23.330;2024-03-02T11:49:49;10.43;78.35
85138;SHT31;75497;42.708;23.330;2024-03-02T11:52:17;10.47;78.47
85138;SHT31;75497;42.708;23.330;2024-03-02T11:54:46;10.41;78.33
85138;SHT31;75497;42.708;23.330;2024-03-02T11:57:19;10.40;78.15
85138;SHT31;75497;42.708;23.330;2024-03-02T11:59:48;10.43;77.81
85138;SHT31;75497;42.708;23.330;2024-03-02T12:02:19;10.30;78.39
85138;SHT31;75497;42.708;23.330;2024-03-02T12:04:46;10.43;78.04
85138;SHT31;75497;42.708;23.330;2024-03-02T12:07:21;10.50;77.74
85138;SHT31;75497;42.708;23.330;2024-03-02T12:09:48;10.50;78.05
85138;SHT31;75497;42.708;23.330;2024-03-02T12:12:14;10.59;77.36
85138;SHT31;75497;42.708;23.330;2024-03-02T12:14:51;10.51;77.58
85138;SHT31;75497;42.708;23.330;2024-03-02T12:17:17;10.56;77.30
85138;SHT31;75497;42.708;23.330;2024-03-02T12:19:42;10.57;76.88
85138;SHT31;75497;42.708;23.330;2024-03-02T12:22:08;10.57;77.22
85138;SHT31;75497;42.708;23.330;2024-03-02T12:24:34;10.61;76.89
85138;SHT31;75497;42.708;23.330;2024-03-02T12:27:00;10.70;76.78
85138;SHT31;75497;42.708;23.330;2024-03-02T12:29:26;10.72;76.43
85138;SHT31;75497;42.708;23.330;2024-03-02T12:31:52;10.82;76.10
85138;SHT31;75497;42.708;23.330;2024-03-02T12:34:19;10.90;76.08
85138;SHT31;75497;42.708;23.330;2024-03-02T12:36:46;10.87;75.52
85138;SHT31;75497;42.708;23.330;2024-03-02T12:39:16;10.74;75.63
85138;SHT31;75497;42.708;23.330;2024-03-02T12:41:41;10.78;75.75
85138;SHT31;75497;42.708;23.330;2024-03-02T12:44:07;10.92;75.75
85138;SHT31;75497;42.708;23.330;2024-03-02T12:46:33;10.92;74.89
85138;SHT31;75497;42.708;23.330;2024-03-02T12:49:10;10.94;75.33
85138;SHT31;75497;42.708;23.330;2024-03-02T12:51:37;10.97;75.39
85138;SHT31;75497;42.708;23.330;2024-03-02T12:54:03;10.90;75.22
85138;SHT31;75497;42.708;23.330;2024-03-02T12:56:30;10.94;74.63
85138;SHT31;75497;42.708;23.330;2024-03-02T12:58:58;10.92;74.87
85138;SHT31;75497;42.708;23.330;2024-03-02T13:01:25;10.97;74.82
85138;SHT31;75497;42.708;23.330;2024-03-02T13:03:52;11.04;73.83
85138;SHT31;75497;42.708;23.330;2024-03-02T13:06:19;11.04;74.76
85138;SHT31;75497;42.708;23.330;2024-03-02T13:08:45;10.97;74.14
85138;SHT31;75497;42.708;23.330;2024-03-02T13:11:13;10.98;74.82
85138;SHT31;75497;42.708;23.330;2024-03-02T13:13:39;10.91;74.27
85138;SHT31;75497;42.708;23.330;2024-03-02T13:16:11;10.90;73.79
85138;SHT31;75497;42.708;23.330;2024-03-02T13:18:41;10.95;73.60
85138;SHT31;75497;42.708;23.330;2024-03-02T13:21:08;10.95;73.86
85138;SHT31;75497;42.708;23.330;2024-03-02T13:23:34;10.95;73.71
85138;SHT31;75497;42.708;23.330;2024-03-02T13:26:00;10.88;74.07
85138;SHT31;75497;42.708;23.330;2024-03-02T13:28:26;10.97;73.98
85138;SHT31;75497;42.708;23.330;2024-03-02T13:30:52;10.94;73.71
85138;SHT31;75497;42.708;23.330;2024-03-02T13:33:17;10.91;74.11
85138;SHT31;75497;42.708;23.330;2024-03-02T13:35:49;11.01;73.65
85138;SHT31;75497;42.708;23.330;2024-03-02T13:38:19;10.82;74.19
85138;SHT31;75497;42.708;23.330;2024-03-02T13:40:46;10.75;74.60
85138;SHT31;75497;42.708;23.330;2024-03-02T13:43:16;10.68;75.53
85138;SHT31;75497;42.708;23.330;2024-03-02T13:45:43;10.53;75.51
85138;SHT31;75497;42.708;23.330;2024-03-02T13:48:08;10.50;76.04
85138;SHT31;75497;42.708;23.330;2024-03-02T13:50:35;10.61;75.90
85138;SHT31;75497;42.708;23.330;2024-03-02T13:53:00;10.71;75.90
85138;SHT31;75497;42.708;23.330;2024-03-02T13:55:26;10.59;77.22
85138;SHT31;75497;42.708;23.330;2024-03-02T13:57:52;10.64;76.36
85138;SHT31;75497;42.708;23.330;2024-03-02T14:00:18;10.71;75.66
85138;SHT31;75497;42.708;23.330;2024-03-02T14:02:45;10.68;75.43
85138;SHT31;75497;42.708;23.330;2024-03-02T14:05:11;10.59;75.00
85138;SHT31;75497;42.708;23.330;2024-03-02T14:07:38;10.63;75.00
85138;SHT31;75497;42.708;23.330;2024-03-02T14:10:04;10.65;75.32
85138;SHT31;75497;42.708;23.330;2024-03-02T14:12:30;10.63;75.90
85138;SHT31;75497;42.708;23.330;2024-03-02T14:14:56;10.71;75.35
85138;SHT31;75497;42.708;23.330;2024-03-02T14:17:24;10.75;75.06
85138;SHT31;75497;42.708;23.330;2024-03-02T14:19:51;10.63;75.61
85138;SHT31;75497;42.708;23.330;2024-03-02T14:22:22;10.59;74.53
85138;SHT31;75497;42.708;23.330;2024-03-02T14:24:48;10.68;74.92
85138;SHT31;75497;42.708;23.330;2024-03-02T14:27:14;10.70;74.35
85138;SHT31;75497;42.708;23.330;2024-03-02T14:29:42;10.65;74.65
85138;SHT31;75497;42.708;23.330;2024-03-02T14:32:07;10.57;74.80
85138;SHT31;75497;42.708;23.330;2024-03-02T14:34:34;10.65;75.50
85138;SHT31;75497;42.708;23.330;2024-03-02T14:37:00;10.78;75.14
85138;SHT31;75497;42.708;23.330;2024-03-02T14:39:26;10.81;73.95
85138;SHT31;75497;42.708;23.330;2024-03-02T14:41:52;10.97;73.46
85138;SHT31;75497;42.708;23.330;2024-03-02T14:44:18;11.00;73.38
85138;SHT31;75497;42.708;23.330;2024-03-02T14:46:47;10.88;73.65
85138;SHT31;75497;42.708;23.330;2024-03-02T14:49:13;10.97;73.96
85138;SHT31;75497;42.708;23.330;2024-03-02T14:51:39;11.04;73.39
85138;SHT31;75497;42.708;23.330;2024-03-02T14:54:05;11.12;72.63
85138;SHT31;75497;42.708;23.330;2024-03-02T14:56:30;11.02;72.88
85138;SHT31;75497;42.708;23.330;2024-03-02T14:58:56;11.01;72.38
85138;SHT31;75497;42.708;23.330;2024-03-02T15:01:21;10.80;72.71
85138;SHT31;75497;42.708;23.330;2024-03-02T15:03:52;10.57;73.67
85138;SHT31;75497;42.708;23.330;2024-03-02T15:06:18;10.64;73.99
85138;SHT31;75497;42.708;23.330;2024-03-02T15:08:44;10.71;73.52
85138;SHT31;75497;42.708;23.330;2024-03-02T15:11:12;10.59;74.71
85138;SHT31;75497;42.708;23.330;2024-03-02T15:13:38;10.54;74.92
85138;SHT31;75497;42.708;23.330;2024-03-02T15:16:03;10.63;74.42
85138;SHT31;75497;42.708;23.330;2024-03-02T15:18:29;10.57;74.45
85138;SHT31;75497;42.708;23.330;2024-03-02T15:20:55;10.56;74.70
85138;SHT31;75497;42.708;23.330;2024-03-02T15:23:20;10.49;74.92
85138;SHT31;75497;42.708;23.330;2024-03-02T15:25:46;10.39;74.77
85138;SHT31;75497;42.708;23.330;2024-03-02T15:28:11;10.46;74.67
85138;SHT31;75497;42.708;23.330;2024-03-02T15:30:37;10.50;75.32